createdAt,value
2022-11-30T00:01:08.104Z,40
2022-11-30T00:06:25.071Z,36
2022-11-30T00:11:41.683Z,34
2022-11-30T00:16:58.251Z,27
2022-11-30T00:22:14.721Z,28
2022-11-30T00:27:31.197Z,31
2022-11-30T00:32:47.728Z,28
2022-11-30T00:38:04.242Z,31
2022-11-30T00:43:20.745Z,26
2022-11-30T00:48:37.248Z,35
2022-11-30T00:53:53.774Z,29
2022-11-30T00:59:10.233Z,29
2022-11-30T01:04:26.758Z,24
2022-11-30T01:09:43.298Z,31
2022-11-30T01:15:00.058Z,25
2022-11-30T01:20:16.495Z,27
2022-11-30T01:25:32.948Z,21
2022-11-30T01:30:49.494Z,24
2022-11-30T01:36:06.077Z,20
2022-11-30T01:41:22.598Z,25
2022-11-30T01:46:39.150Z,27
2022-11-30T01:51:55.613Z,24
2022-11-30T01:57:12.104Z,27
2022-11-30T02:02:28.591Z,23
2022-11-30T02:07:45.339Z,24
2022-11-30T02:13:03.349Z,27
2022-11-30T02:18:19.859Z,21
2022-11-30T02:23:40.955Z,22
2022-11-30T02:28:52.839Z,19
2022-11-30T02:34:09.323Z,22
2022-11-30T02:39:30.791Z,17
2022-11-30T02:44:47.464Z,18
2022-11-30T02:52:10.868Z,19
2022-11-30T02:57:27.471Z,19
2022-11-30T03:02:44.042Z,20
2022-11-30T03:08:01.876Z,19
2022-11-30T03:13:18.363Z,20
2022-11-30T03:18:34.840Z,20
2022-11-30T03:23:51.334Z,18
2022-11-30T03:29:07.847Z,18
2022-11-30T03:34:24.353Z,23
2022-11-30T03:39:40.847Z,18
2022-11-30T03:44:57.330Z,14
2022-11-30T03:50:13.807Z,18
2022-11-30T03:55:30.325Z,18
2022-11-30T04:00:46.821Z,14
2022-11-30T04:06:03.361Z,16
2022-11-30T04:11:19.802Z,18
2022-11-30T04:16:36.296Z,18
2022-11-30T04:21:52.839Z,18
2022-11-30T04:27:09.348Z,17
2022-11-30T04:32:25.858Z,16
2022-11-30T04:37:42.339Z,19
2022-11-30T04:42:58.876Z,22
2022-11-30T04:48:15.341Z,22
2022-11-30T04:53:32.328Z,20
2022-11-30T04:58:48.854Z,19
2022-11-30T05:04:05.370Z,19
2022-11-30T05:09:21.834Z,16
2022-11-30T05:14:38.384Z,20
2022-11-30T05:19:54.821Z,15
2022-11-30T05:25:11.363Z,17
2022-11-30T05:30:27.823Z,22
2022-11-30T05:35:44.338Z,19
2022-11-30T05:41:01.801Z,22
2022-11-30T05:46:18.342Z,20
2022-11-30T05:51:34.818Z,19
2022-11-30T05:56:54.729Z,23
2022-11-30T06:02:08.105Z,23
2022-11-30T06:07:25.274Z,28
2022-11-30T06:12:41.736Z,29
2022-11-30T06:17:58.279Z,32
2022-11-30T06:23:14.792Z,35
2022-11-30T06:28:31.247Z,31
2022-11-30T06:33:47.777Z,34
2022-11-30T06:39:04.281Z,34
2022-11-30T06:44:20.870Z,36
2022-11-30T06:49:37.351Z,32
2022-11-30T06:54:53.916Z,38
2022-11-30T07:00:10.236Z,53
2022-11-30T07:05:31.464Z,55
2022-11-30T07:10:48.517Z,50
2022-11-30T07:16:05.126Z,53
2022-11-30T07:21:21.598Z,47
2022-11-30T07:26:37.860Z,45
2022-11-30T07:31:54.545Z,43
2022-11-30T07:37:10.942Z,43
2022-11-30T07:42:27.442Z,39
2022-11-30T07:47:43.941Z,37
2022-11-30T07:53:03.280Z,38
2022-11-30T07:58:19.779Z,33
2022-11-30T08:03:37.334Z,33
2022-11-30T08:08:52.800Z,30
2022-11-30T08:14:09.303Z,33
2022-11-30T08:19:25.776Z,26
2022-11-30T08:24:42.826Z,30
2022-11-30T08:29:59.288Z,24
2022-11-30T08:35:15.893Z,24
2022-11-30T08:40:32.087Z,30
2022-11-30T08:45:54.074Z,25
2022-11-30T08:51:05.122Z,23
2022-11-30T08:56:22.156Z,33
2022-11-30T09:01:38.679Z,32
2022-11-30T09:06:55.112Z,38
2022-11-30T09:12:11.622Z,37
2022-11-30T09:17:28.169Z,29
2022-11-30T09:22:44.651Z,24
2022-11-30T09:28:01.976Z,25
2022-11-30T09:33:18.440Z,21
2022-11-30T09:38:35.435Z,25
2022-11-30T09:43:51.680Z,25
2022-11-30T09:49:08.185Z,21
2022-11-30T09:54:24.687Z,19
2022-11-30T09:59:41.106Z,16
2022-11-30T10:04:57.598Z,14
2022-11-30T10:10:31.583Z,16
2022-11-30T10:15:30.589Z,13
2022-11-30T10:20:47.117Z,11
2022-11-30T10:26:03.607Z,13
2022-11-30T10:31:20.135Z,15
2022-11-30T10:36:36.466Z,12
2022-11-30T10:41:52.928Z,13
2022-11-30T10:47:09.402Z,11
2022-11-30T10:52:25.869Z,10
2022-11-30T10:57:42.288Z,13
2022-11-30T11:03:03.738Z,14
2022-11-30T11:08:20.215Z,16
2022-11-30T11:13:36.704Z,16
2022-11-30T11:18:53.078Z,12
2022-11-30T11:24:09.587Z,8
2022-11-30T11:29:25.995Z,9
2022-11-30T11:34:46.540Z,14
2022-11-30T11:39:58.898Z,11
2022-11-30T11:45:15.344Z,8
2022-11-30T11:51:04.942Z,8
2022-11-30T11:55:48.208Z,12
2022-11-30T12:01:31.415Z,12
2022-11-30T12:06:21.117Z,10
2022-11-30T12:11:37.505Z,9
2022-11-30T12:16:53.978Z,12
2022-11-30T12:22:10.433Z,9
2022-11-30T12:27:26.826Z,9
2022-11-30T12:32:43.368Z,10
2022-11-30T12:37:59.867Z,9
2022-11-30T12:43:16.289Z,9
2022-11-30T12:48:32.873Z,6
2022-11-30T12:53:49.154Z,7
2022-11-30T12:59:05.580Z,6
2022-11-30T13:04:22.022Z,5
2022-11-30T13:09:38.489Z,5
2022-11-30T13:14:54.932Z,5
2022-11-30T13:20:11.369Z,4
2022-11-30T13:26:05.706Z,5
2022-11-30T13:30:44.313Z,5
2022-11-30T13:36:04.756Z,7
2022-11-30T13:41:21.825Z,17
2022-11-30T13:46:37.703Z,16
2022-11-30T13:52:20.665Z,12
2022-11-30T13:57:10.533Z,13
2022-11-30T14:02:27.023Z,15
2022-11-30T14:07:43.625Z,14
2022-11-30T14:13:00.041Z,14
2022-11-30T14:18:16.550Z,16
2022-11-30T14:23:33.008Z,19
2022-11-30T14:28:49.536Z,18
2022-11-30T14:34:05.990Z,15
2022-11-30T14:39:22.485Z,15
2022-11-30T14:44:38.959Z,15
2022-11-30T14:49:55.405Z,16
2022-11-30T14:55:11.884Z,15
2022-11-30T15:00:28.825Z,15
2022-11-30T15:05:45.334Z,13
2022-11-30T15:11:03.381Z,16
2022-11-30T15:16:19.962Z,16
2022-11-30T15:21:37.351Z,16
2022-11-30T15:26:52.866Z,18
2022-11-30T15:32:09.498Z,18
2022-11-30T15:37:25.833Z,21
2022-11-30T15:42:42.332Z,21
2022-11-30T15:47:58.805Z,24
2022-11-30T15:53:15.329Z,26
2022-11-30T15:58:31.814Z,29
2022-11-30T16:03:53.240Z,25
2022-11-30T16:09:09.730Z,27
2022-11-30T16:14:26.222Z,26
2022-11-30T16:19:42.753Z,28
2022-11-30T16:24:59.308Z,31
2022-11-30T16:30:15.769Z,44
2022-11-30T16:35:32.064Z,48
2022-11-30T16:40:48.538Z,49
2022-11-30T16:46:04.890Z,44
2022-11-30T16:51:21.376Z,49
2022-11-30T16:56:37.860Z,47
2022-11-30T17:01:54.491Z,45
2022-11-30T17:07:10.926Z,51
2022-11-30T17:12:27.491Z,46
2022-11-30T17:17:45.300Z,57
2022-11-30T17:23:03.298Z,61
2022-11-30T17:28:19.860Z,55
2022-11-30T17:33:36.416Z,58
2022-11-30T17:38:53.488Z,60
2022-11-30T17:44:10.052Z,55
2022-11-30T17:49:26.597Z,53
2022-11-30T17:54:43.753Z,57
2022-11-30T18:00:00.125Z,58
2022-11-30T18:05:16.625Z,60
2022-11-30T18:10:33.144Z,59
2022-11-30T18:15:50.937Z,60
2022-11-30T18:21:07.428Z,61
2022-11-30T18:26:23.949Z,58
2022-11-30T18:31:40.857Z,59
2022-11-30T18:36:57.436Z,58
2022-11-30T18:42:13.956Z,56
2022-11-30T18:47:30.466Z,52
2022-11-30T18:52:47.021Z,49
2022-11-30T18:58:03.440Z,53
2022-11-30T19:03:20.188Z,54
2022-11-30T19:08:36.705Z,57
2022-11-30T19:13:53.276Z,61
2022-11-30T19:19:09.801Z,60
2022-11-30T19:24:26.723Z,60
2022-11-30T19:29:43.238Z,58
2022-11-30T19:34:59.804Z,51
2022-11-30T19:40:16.143Z,46
2022-11-30T19:45:32.352Z,42
2022-11-30T19:50:48.865Z,43
2022-11-30T19:56:05.370Z,44
2022-11-30T20:01:22.040Z,43
2022-11-30T20:06:38.467Z,37
2022-11-30T20:11:54.784Z,39
2022-11-30T20:17:11.251Z,37
2022-11-30T20:22:27.777Z,48
2022-11-30T20:27:44.945Z,57
2022-11-30T20:33:01.829Z,58
2022-11-30T20:38:18.372Z,60
2022-11-30T20:43:35.546Z,59
2022-11-30T20:48:52.224Z,56
2022-11-30T20:54:08.778Z,52
2022-11-30T20:59:25.311Z,50
2022-11-30T21:04:41.829Z,45
2022-11-30T21:09:58.380Z,43
2022-11-30T21:15:14.911Z,42
2022-11-30T21:20:31.431Z,41
2022-11-30T21:25:47.926Z,47
2022-11-30T21:31:04.498Z,42
2022-11-30T21:36:20.989Z,38
2022-11-30T21:41:38.068Z,43
2022-11-30T21:46:54.667Z,37
2022-11-30T21:52:11.116Z,47
2022-11-30T21:57:27.638Z,41
2022-11-30T22:02:44.652Z,40
2022-11-30T22:08:01.929Z,36
2022-11-30T22:13:18.176Z,35
2022-11-30T22:18:34.639Z,33
2022-11-30T22:23:51.158Z,36
2022-11-30T22:29:07.636Z,36
2022-11-30T22:34:24.110Z,35
2022-11-30T22:39:41.197Z,36
2022-11-30T22:44:57.928Z,33
2022-11-30T22:50:14.514Z,31
2022-11-30T22:55:31.215Z,31
2022-11-30T23:00:47.207Z,33
2022-11-30T23:06:03.708Z,31
2022-11-30T23:11:20.217Z,29
2022-11-30T23:16:36.864Z,30
2022-11-30T23:21:53.200Z,28
2022-11-30T23:27:09.719Z,37
2022-11-30T23:32:26.218Z,36
2022-11-30T23:37:43.270Z,34
2022-11-30T23:42:59.802Z,32
2022-11-30T23:48:16.348Z,36
2022-11-30T23:53:32.854Z,32
2022-11-30T23:58:49.599Z,28
